Time;durP1;ratioP1;P1;durP2;ratioP2;P2;SDS_P1;SDS_P2;PMS_P1;PMS_P2;Temp;Humidity;BMP_temperature;BMP_pressure;BME280_temperature;BME280_humidity;BME280_pressure;Samples;Min_cycle;Max_cycle;Signal;HPM_P1;HPM_P2
2021/06/16 00:02:17;;;;;;;4.40;1.60;;;18.90;79.00;;;;;;5105871;28;20035;-38
2021/06/16 00:04:43;;;;;;;5.82;1.90;;;18.80;79.00;;;;;;5106928;28;20019;-42
2021/06/16 00:07:12;;;;;;;4.32;1.63;;;18.80;79.00;;;;;;5106367;28;20042;-39
2021/06/16 00:09:37;;;;;;;5.63;1.60;;;18.80;79.20;;;;;;5105964;28;20524;-39
2021/06/16 00:12:03;;;;;;;2.22;1.20;;;18.90;79.30;;;;;;5106173;28;20230;-40
2021/06/16 00:14:29;;;;;;;3.75;2.05;;;18.80;79.30;;;;;;5106413;28;20114;-39
2021/06/16 00:16:55;;;;;;;4.03;1.52;;;18.80;79.50;;;;;;5105763;28;20764;-39
2021/06/16 00:19:20;;;;;;;6.57;1.73;;;18.80;79.60;;;;;;5107072;28;20020;-38
2021/06/16 00:21:46;;;;;;;4.80;1.88;;;18.70;79.70;;;;;;5105398;28;20207;-38
2021/06/16 00:24:14;;;;;;;4.53;1.55;;;18.70;79.80;;;;;;5106385;28;20077;-37
2021/06/16 00:26:39;;;;;;;2.78;1.48;;;18.70;79.90;;;;;;5106573;28;20055;-36
2021/06/16 00:29:05;;;;;;;2.40;1.17;;;18.70;80.00;;;;;;5105919;28;20083;-39
2021/06/16 00:31:31;;;;;;;2.42;1.10;;;18.60;80.00;;;;;;5106241;28;20051;-40
2021/06/16 00:33:56;;;;;;;4.50;1.35;;;18.60;80.10;;;;;;5105636;28;20475;-38
2021/06/16 00:36:28;;;;;;;5.40;1.40;;;18.60;80.20;;;;;;5106400;28;20479;-38
2021/06/16 00:38:54;;;;;;;3.33;1.55;;;18.50;80.20;;;;;;5105948;28;20102;-38
2021/06/16 00:41:19;;;;;;;6.63;1.60;;;18.50;80.10;;;;;;5106467;28;20110;-39
2021/06/16 00:43:45;;;;;;;3.28;1.50;;;18.50;80.20;;;;;;5105052;28;20031;-39
2021/06/16 00:46:11;;;;;;;5.75;1.50;;;18.50;80.40;;;;;;5106404;28;20072;-39
2021/06/16 00:48:36;;;;;;;3.92;1.40;;;18.40;80.50;;;;;;5107926;28;20081;-39
2021/06/16 00:51:02;;;;;;;3.63;1.58;;;18.40;80.60;;;;;;5109185;28;20427;-38
2021/06/16 00:53:27;;;;;;;5.45;1.70;;;18.40;80.70;;;;;;5110395;28;20047;-38
2021/06/16 00:55:53;;;;;;;2.63;1.40;;;18.40;80.70;;;;;;5109599;28;20020;-39
2021/06/16 00:58:19;;;;;;;5.80;1.90;;;18.40;80.80;;;;;;5108931;28;20023;-43
2021/06/16 01:01:11;;;;;;;5.45;1.98;;;18.40;80.90;;;;;;5109995;28;20035;-39
2021/06/16 01:04:01;;;;;;;3.30;1.67;;;18.30;81.00;;;;;;5110173;28;20046;-37
2021/06/16 01:06:35;;;;;;;4.57;1.77;;;18.30;80.90;;;;;;5109460;28;20274;-38
2021/06/16 01:09:06;;;;;;;4.57;1.77;;;18.30;81.00;;;;;;5108878;28;20020;-38
2021/06/16 01:11:43;;;;;;;4.15;1.65;;;18.30;81.10;;;;;;5109287;28;20443;-39
2021/06/16 01:14:12;;;;;;;6.47;1.90;;;18.20;81.10;;;;;;5109077;28;20059;-40
2021/06/16 01:16:46;;;;;;;5.05;1.50;;;18.20;81.10;;;;;;5109611;28;20028;-39
2021/06/16 01:19:35;;;;;;;6.20;1.85;;;18.20;81.20;;;;;;5108911;27;20410;-38
2021/06/16 01:22:03;;;;;;;5.68;1.88;;;18.20;81.20;;;;;;5108472;28;20427;-40
2021/06/16 01:24:30;;;;;;;5.40;1.75;;;18.20;81.10;;;;;;5109472;28;20391;-39
2021/06/16 01:26:58;;;;;;;3.85;1.60;;;18.20;81.10;;;;;;5106748;28;20030;-39
2021/06/16 01:29:34;;;;;;;4.97;1.70;;;18.20;81.20;;;;;;5109560;28;20039;-38
2021/06/16 01:32:01;;;;;;;3.75;1.70;;;18.20;81.20;;;;;;5107987;28;20118;-37
2021/06/16 01:34:27;;;;;;;6.15;2.75;;;18.20;81.20;;;;;;5108844;28;20027;-37
2021/06/16 01:36:56;;;;;;;5.63;2.30;;;18.10;81.20;;;;;;5109233;28;20561;-39
2021/06/16 01:39:25;;;;;;;3.78;1.75;;;18.10;81.30;;;;;;5108233;28;20084;-39
2021/06/16 01:41:55;;;;;;;3.30;1.52;;;18.10;81.30;;;;;;5108834;28;20510;-42
2021/06/16 01:44:22;;;;;;;6.07;1.70;;;18.10;81.40;;;;;;5109143;28;20020;-40
2021/06/16 01:46:52;;;;;;;4.05;1.60;;;18.10;81.40;;;;;;5107972;28;20415;-38
2021/06/16 01:49:24;;;;;;;4.75;1.50;;;18.10;81.50;;;;;;5108748;28;20103;-40
2021/06/16 01:51:51;;;;;;;5.43;1.60;;;18.10;81.60;;;;;;5108602;28;20071;-39
2021/06/16 01:54:17;;;;;;;4.13;1.58;;;18.10;81.60;;;;;;5108251;28;20331;-38
2021/06/16 01:56:45;;;;;;;3.65;1.60;;;18.10;82.40;;;;;;5108612;28;20064;-38
2021/06/16 01:59:12;;;;;;;3.92;1.77;;;18.10;81.90;;;;;;5107455;28;20030;-39
2021/06/16 02:01:38;;;;;;;6.97;1.70;;;18.00;81.90;;;;;;5107787;28;20511;-38
2021/06/16 02:04:03;;;;;;;6.10;1.70;;;18.10;82.00;;;;;;5108403;28;20118;-38
2021/06/16 02:06:35;;;;;;;4.85;1.60;;;18.00;82.00;;;;;;5108111;28;20020;-38
2021/06/16 02:09:02;;;;;;;3.83;1.60;;;18.00;82.10;;;;;;5107720;28;20078;-39
2021/06/16 02:11:29;;;;;;;8.07;1.52;;;18.00;82.20;;;;;;5107810;28;20145;-40
2021/06/16 02:13:59;;;;;;;4.38;1.85;;;17.90;82.20;;;;;;5108197;28;20042;-39
2021/06/16 02:16:46;;;;;;;6.47;1.88;;;17.90;82.30;;;;;;5107718;28;20015;-39
2021/06/16 02:19:18;;;;;;;4.85;1.88;;;17.90;82.50;;;;;;5088095;28;20138;-40
2021/06/16 02:21:45;;;;;;;5.18;1.90;;;17.90;82.50;;;;;;5102624;28;20366;-39
2021/06/16 02:24:12;;;;;;;5.53;1.98;;;17.80;82.50;;;;;;5108073;28;20023;-38
2021/06/16 02:26:38;;;;;;;2.97;1.42;;;17.80;82.70;;;;;;5107893;28;20023;-38
2021/06/16 02:29:09;;;;;;;3.42;1.60;;;17.80;82.70;;;;;;5107135;28;20665;-38
2021/06/16 02:31:34;;;;;;;3.53;2.00;;;17.80;82.80;;;;;;5107746;28;20031;-39
2021/06/16 02:34:00;;;;;;;3.92;1.75;;;17.70;82.80;;;;;;5106966;28;20195;-39
2021/06/16 02:36:29;;;;;;;3.83;1.60;;;17.70;82.90;;;;;;5107403;28;20107;-39
2021/06/16 02:38:58;;;;;;;5.80;2.13;;;17.70;83.00;;;;;;5107081;28;20020;-38
2021/06/16 02:41:24;;;;;;;3.53;1.85;;;17.70;83.10;;;;;;5107494;28;20054;-37
2021/06/16 02:43:51;;;;;;;4.10;1.80;;;17.70;83.20;;;;;;5107539;28;20069;-40
2021/06/16 02:46:18;;;;;;;5.00;1.95;;;17.60;83.30;;;;;;5107128;28;20082;-40
2021/06/16 02:48:47;;;;;;;5.90;1.67;;;17.60;83.40;;;;;;5107114;28;20031;-40
2021/06/16 02:51:13;;;;;;;3.90;1.80;;;17.60;83.50;;;;;;5107207;28;20023;-40
2021/06/16 02:53:41;;;;;;;4.70;1.80;;;17.60;83.50;;;;;;5107692;28;20035;-39
2021/06/16 02:56:08;;;;;;;6.53;1.92;;;17.60;83.60;;;;;;5107198;28;20020;-39
2021/06/16 02:58:37;;;;;;;4.78;1.83;;;17.50;83.80;;;;;;5107019;28;20080;-40
2021/06/16 03:01:05;;;;;;;5.53;2.25;;;17.50;83.90;;;;;;5106943;28;20047;-39
2021/06/16 03:03:32;;;;;;;4.00;2.05;;;17.50;84.00;;;;;;5106608;28;20020;-39
2021/06/16 03:05:59;;;;;;;4.03;1.83;;;17.50;84.10;;;;;;5107037;28;20024;-39
2021/06/16 03:08:27;;;;;;;4.82;1.95;;;17.50;84.20;;;;;;5107176;28;20011;-40
2021/06/16 03:10:54;;;;;;;4.00;2.08;;;17.40;84.30;;;;;;5085953;28;20032;-39
2021/06/16 03:13:24;;;;;;;4.75;1.98;;;17.40;84.40;;;;;;5101526;28;20501;-39
2021/06/16 03:15:51;;;;;;;4.53;1.80;;;17.40;84.60;;;;;;5107246;28;20036;-38
2021/06/16 03:18:20;;;;;;;6.25;2.10;;;17.40;84.70;;;;;;5106648;28;20038;-36
2021/06/16 03:20:47;;;;;;;5.07;2.00;;;17.40;84.80;;;;;;5107254;28;20024;-39
2021/06/16 03:23:13;;;;;;;5.53;2.20;;;17.30;84.90;;;;;;5106587;28;20424;-36
2021/06/16 03:25:39;;;;;;;5.43;2.08;;;17.40;85.10;;;;;;5106761;28;20390;-38
2021/06/16 03:28:06;;;;;;;5.75;2.20;;;17.30;85.20;;;;;;5106661;28;20502;-39
2021/06/16 03:30:33;;;;;;;5.00;2.00;;;17.30;85.30;;;;;;5107157;28;20038;-35
2021/06/16 03:33:04;;;;;;;5.80;2.08;;;17.30;85.40;;;;;;5105838;28;20402;-39
2021/06/16 03:35:30;;;;;;;4.57;2.00;;;17.30;85.50;;;;;;5107436;28;20054;-37
2021/06/16 03:37:57;;;;;;;5.85;2.30;;;17.30;85.60;;;;;;5106184;28;20055;-40
2021/06/16 03:40:27;;;;;;;4.43;1.90;;;17.20;85.60;;;;;;5105330;28;20016;-39
2021/06/16 03:42:55;;;;;;;6.13;2.58;;;17.20;85.80;;;;;;5106945;28;20027;-39
2021/06/16 03:45:21;;;;;;;3.83;1.98;;;17.20;85.90;;;;;;5106847;28;20020;-39
2021/06/16 03:47:52;;;;;;;5.00;2.15;;;17.20;86.00;;;;;;5106388;28;20077;-39
2021/06/16 03:50:19;;;;;;;5.30;2.75;;;17.20;86.10;;;;;;5105408;28;20026;-40
2021/06/16 03:52:45;;;;;;;4.55;2.20;;;17.20;86.20;;;;;;5105565;28;20040;-39
2021/06/16 03:55:11;;;;;;;4.40;2.60;;;17.20;86.30;;;;;;5106137;28;20900;-39
2021/06/16 03:57:39;;;;;;;5.55;2.25;;;17.20;86.40;;;;;;5107015;28;20140;-38
2021/06/16 04:00:06;;;;;;;6.05;2.67;;;17.20;86.60;;;;;;5105738;28;20016;-41
2021/06/16 04:02:32;;;;;;;6.93;2.63;;;17.20;86.70;;;;;;5106654;28;20493;-39
2021/06/16 04:05:06;;;;;;;6.30;2.45;;;17.20;86.80;;;;;;5106458;28;20024;-41
2021/06/16 04:07:32;;;;;;;6.72;2.83;;;17.20;86.90;;;;;;5106440;28;20035;-41
2021/06/16 04:09:58;;;;;;;6.40;2.40;;;17.10;87.00;;;;;;5106033;28;20012;-39
2021/06/16 04:12:24;;;;;;;5.28;2.45;;;17.20;87.10;;;;;;5106809;28;20111;-38
2021/06/16 04:14:51;;;;;;;5.00;2.50;;;17.10;87.20;;;;;;5105930;28;20168;-38
2021/06/16 04:17:18;;;;;;;5.18;2.15;;;17.20;88.00;;;;;;5106671;28;20027;-38
2021/06/16 04:19:50;;;;;;;6.63;2.60;;;17.20;87.40;;;;;;5106280;28;20023;-37
2021/06/16 04:22:17;;;;;;;8.07;2.50;;;17.20;88.10;;;;;;5105695;28;20452;-39
2021/06/16 04:24:43;;;;;;;3.92;2.40;;;17.20;87.50;;;;;;5109789;28;20073;-38
2021/06/16 04:27:08;;;;;;;5.05;2.85;;;17.20;88.20;;;;;;5110360;28;20031;-39
2021/06/16 04:29:35;;;;;;;5.25;2.60;;;17.20;87.60;;;;;;5109878;28;20102;-37
2021/06/16 04:32:01;;;;;;;6.90;2.75;;;17.30;87.60;;;;;;5109837;28;20024;-39
2021/06/16 04:34:27;;;;;;;4.05;2.33;;;17.30;87.60;;;;;;5110054;28;20661;-38
2021/06/16 04:36:53;;;;;;;5.10;2.20;;;17.30;87.70;;;;;;5109071;28;20027;-38
2021/06/16 04:39:18;;;;;;;5.95;2.80;;;17.30;87.80;;;;;;5110315;28;20020;-39
2021/06/16 04:41:45;;;;;;;5.65;2.25;;;17.40;87.80;;;;;;5108880;28;20024;-38
2021/06/16 04:44:11;;;;;;;5.13;2.50;;;17.40;87.90;;;;;;5109991;27;20047;-39
2021/06/16 04:46:37;;;;;;;5.68;2.45;;;17.40;88.00;;;;;;5110379;28;20041;-38
2021/06/16 04:49:02;;;;;;;4.75;2.50;;;17.50;88.00;;;;;;5108767;28;20150;-38
2021/06/16 04:51:28;;;;;;;5.25;2.50;;;17.50;88.10;;;;;;5110048;28;20028;-39
2021/06/16 04:53:54;;;;;;;4.80;2.67;;;17.50;88.10;;;;;;5108912;28;20169;-36
2021/06/16 04:56:19;;;;;;;4.72;2.85;;;17.60;88.20;;;;;;5109147;28;20467;-39
2021/06/16 04:58:48;;;;;;;4.75;2.40;;;17.60;88.10;;;;;;5110030;28;20024;-38
2021/06/16 05:01:14;;;;;;;4.75;2.58;;;17.80;88.30;;;;;;5109244;28;20012;-38
2021/06/16 05:03:39;;;;;;;4.38;2.40;;;17.60;88.10;;;;;;5109202;28;20114;-38
2021/06/16 05:06:05;;;;;;;5.72;2.35;;;17.70;88.20;;;;;;5109187;28;20106;-39
2021/06/16 05:08:31;;;;;;;4.45;2.30;;;17.80;88.30;;;;;;5109993;28;20418;-39
2021/06/16 05:10:56;;;;;;;4.85;2.20;;;17.80;88.30;;;;;;5109012;28;20085;-38
2021/06/16 05:13:26;;;;;;;5.07;2.20;;;17.80;88.30;;;;;;5109567;28;20097;-39
2021/06/16 05:15:52;;;;;;;6.00;2.38;;;17.90;88.40;;;;;;5108894;27;20123;-38
2021/06/16 05:18:18;;;;;;;4.13;2.47;;;17.90;88.40;;;;;;5108756;28;20043;-39
2021/06/16 05:20:47;;;;;;;5.22;2.47;;;17.90;88.40;;;;;;5109358;28;20024;-39
2021/06/16 05:23:13;;;;;;;6.78;2.35;;;17.90;88.40;;;;;;5108746;28;20031;-39
2021/06/16 05:25:41;;;;;;;3.90;2.22;;;18.00;88.50;;;;;;5108864;28;20099;-39
2021/06/16 05:28:08;;;;;;;4.30;2.20;;;18.00;88.50;;;;;;5108630;28;20342;-38
2021/06/16 05:30:33;;;;;;;4.25;2.20;;;18.00;88.50;;;;;;5109555;27;20019;-40
2021/06/16 05:32:59;;;;;;;5.80;2.50;;;18.00;88.50;;;;;;5108106;28;20470;-37
2021/06/16 05:35:24;;;;;;;7.25;2.90;;;18.10;88.60;;;;;;5109240;28;20080;-40
2021/06/16 05:37:50;;;;;;;6.43;2.50;;;18.10;88.60;;;;;;5108409;28;20027;-39
2021/06/16 05:40:16;;;;;;;5.90;2.60;;;18.20;88.60;;;;;;5108511;28;20031;-39
2021/06/16 05:42:42;;;;;;;5.45;2.88;;;18.20;88.60;;;;;;5109158;27;20024;-36
2021/06/16 05:45:08;;;;;;;8.40;2.58;;;18.30;88.60;;;;;;5108674;27;20059;-41
2021/06/16 05:47:34;;;;;;;3.53;2.50;;;18.30;88.60;;;;;;5108772;28;20471;-39
2021/06/16 05:50:00;;;;;;;4.20;2.40;;;18.30;88.70;;;;;;5105478;28;20039;-39
2021/06/16 05:52:26;;;;;;;4.20;2.63;;;18.40;88.70;;;;;;5107425;28;20386;-38
2021/06/16 05:54:51;;;;;;;5.55;2.55;;;18.40;88.60;;;;;;5107658;28;20024;-39
2021/06/16 05:57:17;;;;;;;5.45;2.53;;;18.50;88.60;;;;;;5108182;28;20483;-38
2021/06/16 05:59:43;;;;;;;3.53;2.50;;;18.50;88.60;;;;;;5107149;28;20031;-39
2021/06/16 06:02:08;;;;;;;3.95;2.80;;;18.60;88.60;;;;;;5107752;28;20012;-37
2021/06/16 06:04:34;;;;;;;4.50;2.85;;;18.60;88.60;;;;;;5107656;28;20024;-39
2021/06/16 06:07:02;;;;;;;6.18;2.75;;;18.70;88.70;;;;;;5107785;28;20031;-40
2021/06/16 06:09:28;;;;;;;4.32;2.15;;;18.70;88.80;;;;;;5107606;28;20092;-40
2021/06/16 06:11:54;;;;;;;5.57;2.40;;;18.80;88.80;;;;;;5107358;28;20070;-39
2021/06/16 06:14:20;;;;;;;3.97;2.83;;;18.80;88.90;;;;;;5106221;28;20030;-41
2021/06/16 06:16:46;;;;;;;5.85;2.90;;;18.80;88.90;;;;;;5108469;28;20420;-40
2021/06/16 06:19:12;;;;;;;5.63;2.85;;;18.90;89.00;;;;;;5107360;27;20026;-34
2021/06/16 06:21:38;;;;;;;5.82;2.65;;;19.00;89.10;;;;;;5106582;28;20433;-39
2021/06/16 06:24:04;;;;;;;5.82;2.90;;;19.00;89.10;;;;;;5108678;27;20007;-38
2021/06/16 06:26:31;;;;;;;6.25;2.70;;;19.00;89.00;;;;;;5107760;27;20062;-38
2021/06/16 06:28:57;;;;;;;5.30;3.17;;;19.10;89.10;;;;;;5106873;28;20053;-39
2021/06/16 06:31:22;;;;;;;5.82;3.35;;;19.10;89.10;;;;;;5108237;28;20020;-40
2021/06/16 06:33:51;;;;;;;6.88;3.33;;;19.10;89.00;;;;;;5107836;28;20027;-39
2021/06/16 06:36:18;;;;;;;6.55;3.33;;;19.20;89.10;;;;;;5107358;28;20023;-42
2021/06/16 06:38:44;;;;;;;5.13;3.25;;;19.20;89.00;;;;;;5107226;28;20053;-37
2021/06/16 06:41:12;;;;;;;7.43;3.40;;;19.30;89.10;;;;;;5107777;28;20023;-41
2021/06/16 06:43:37;;;;;;;4.05;3.05;;;19.30;89.10;;;;;;5107566;28;20023;-40
2021/06/16 06:46:03;;;;;;;6.53;3.47;;;19.40;89.80;;;;;;5106435;28;20035;-38
2021/06/16 06:48:28;;;;;;;3.58;2.60;;;19.40;89.10;;;;;;5107633;28;20490;-39
2021/06/16 06:50:54;;;;;;;6.90;3.05;;;19.50;89.10;;;;;;5106842;28;20027;-37
2021/06/16 06:53:21;;;;;;;3.75;3.05;;;19.50;88.90;;;;;;5107818;28;20071;-38
2021/06/16 06:55:47;;;;;;;7.22;2.70;;;19.60;88.90;;;;;;5107767;28;20058;-41
2021/06/16 06:58:13;;;;;;;5.13;2.90;;;19.60;88.90;;;;;;5107894;28;20023;-39
2021/06/16 07:00:39;;;;;;;5.47;3.20;;;19.70;88.70;;;;;;5107383;28;20340;-40
2021/06/16 07:03:05;;;;;;;4.38;2.28;;;19.80;88.70;;;;;;5106478;28;20026;-39
2021/06/16 07:05:31;;;;;;;3.78;2.90;;;19.90;88.50;;;;;;5107470;28;20148;-39
2021/06/16 07:07:56;;;;;;;3.45;2.25;;;19.90;88.40;;;;;;5107300;28;20070;-39
2021/06/16 07:10:22;;;;;;;2.97;2.03;;;20.00;88.20;;;;;;5107337;28;20019;-40
2021/06/16 07:12:48;;;;;;;3.15;2.20;;;20.10;88.10;;;;;;5106722;28;20042;-38
2021/06/16 07:15:13;;;;;;;5.63;3.13;;;20.20;88.00;;;;;;5106546;28;20347;-41
2021/06/16 07:17:39;;;;;;;4.82;2.08;;;20.30;88.10;;;;;;5106525;28;20382;-38
2021/06/16 07:20:06;;;;;;;5.55;2.67;;;20.40;87.80;;;;;;5106870;28;20016;-37
2021/06/16 07:22:32;;;;;;;4.55;2.83;;;20.50;87.80;;;;;;5107275;28;20043;-39
2021/06/16 07:24:58;;;;;;;5.00;3.28;;;20.50;87.80;;;;;;5106343;28;20093;-38
2021/06/16 07:27:24;;;;;;;4.88;3.20;;;20.60;87.70;;;;;;5106371;28;20069;-40
2021/06/16 07:29:50;;;;;;;6.68;2.97;;;20.70;87.60;;;;;;5106823;28;20470;-39
2021/06/16 07:32:18;;;;;;;6.90;3.25;;;20.70;87.60;;;;;;5106921;27;20135;-39
2021/06/16 07:34:45;;;;;;;6.80;3.00;;;20.80;87.60;;;;;;5107425;28;20016;-37
2021/06/16 07:37:13;;;;;;;5.15;2.38;;;20.90;87.10;;;;;;5106716;28;20131;-39
2021/06/16 07:39:39;;;;;;;6.82;2.90;;;21.00;87.40;;;;;;5106360;28;20024;-38
2021/06/16 07:42:05;;;;;;;6.70;2.53;;;21.10;86.50;;;;;;5106273;28;20016;-40
2021/06/16 07:44:31;;;;;;;3.20;1.90;;;21.10;86.20;;;;;;5106716;28;20531;-40
2021/06/16 07:46:56;;;;;;;6.85;2.50;;;21.20;86.00;;;;;;5105782;28;20015;-39
2021/06/16 07:49:22;;;;;;;4.40;2.33;;;21.20;85.80;;;;;;5106803;28;20067;-38
2021/06/16 07:51:48;;;;;;;2.88;1.90;;;21.30;85.60;;;;;;5105541;28;20027;-38
2021/06/16 07:54:23;;;;;;;4.43;2.25;;;21.30;85.30;;;;;;5106828;28;20011;-40
2021/06/16 07:56:49;;;;;;;3.58;2.10;;;21.40;85.10;;;;;;5106536;28;20019;-39
2021/06/16 07:59:14;;;;;;;4.00;2.10;;;21.50;85.00;;;;;;5108931;28;20080;-38
2021/06/16 08:01:42;;;;;;;5.20;2.40;;;21.50;84.60;;;;;;5110895;28;20038;-38
2021/06/16 08:04:08;;;;;;;6.03;2.15;;;21.60;83.90;;;;;;5109851;28;20047;-40
2021/06/16 08:06:33;;;;;;;3.40;2.28;;;21.60;83.30;;;;;;5110319;28;20072;-40
2021/06/16 08:08:59;;;;;;;3.35;1.92;;;21.70;83.10;;;;;;5110369;28;20434;-40
2021/06/16 08:11:25;;;;;;;2.90;2.22;;;21.80;82.90;;;;;;5110350;28;20125;-40
2021/06/16 08:13:50;;;;;;;5.10;2.17;;;21.80;82.70;;;;;;5107440;28;20035;-39
2021/06/16 08:16:18;;;;;;;5.90;2.15;;;21.90;82.40;;;;;;5110483;28;20545;-39
2021/06/16 08:18:48;;;;;;;4.82;1.98;;;22.00;82.40;;;;;;5109409;27;20043;-39
2021/06/16 08:21:14;;;;;;;5.13;2.30;;;22.00;82.40;;;;;;5107818;28;20491;-36
2021/06/16 08:23:41;;;;;;;3.72;2.00;;;22.10;81.90;;;;;;5109005;28;20406;-40
2021/06/16 08:26:06;;;;;;;4.78;1.92;;;22.10;81.70;;;;;;5109430;28;20020;-39
2021/06/16 08:28:32;;;;;;;4.07;1.80;;;22.20;81.70;;;;;;5108576;28;20036;-42
2021/06/16 08:30:57;;;;;;;3.15;2.38;;;22.30;82.30;;;;;;5109358;28;20583;-39
2021/06/16 08:33:29;;;;;;;3.60;2.00;;;22.40;81.60;;;;;;5109846;28;20465;-39
2021/06/16 08:35:54;;;;;;;3.80;2.13;;;22.50;81.50;;;;;;5110221;28;20125;-38
2021/06/16 08:38:20;;;;;;;4.72;2.50;;;22.60;81.40;;;;;;5110326;28;20111;-38
2021/06/16 08:40:46;;;;;;;4.53;2.50;;;22.70;81.20;;;;;;5110128;28;20096;-39
2021/06/16 08:43:13;;;;;;;3.05;1.70;;;22.80;81.10;;;;;;5109440;28;20030;-38
2021/06/16 08:45:43;;;;;;;4.28;2.53;;;22.80;81.00;;;;;;5110767;28;20170;-39
2021/06/16 08:48:09;;;;;;;5.28;2.33;;;22.80;80.80;;;;;;5109471;28;20034;-39
2021/06/16 08:50:36;;;;;;;1.70;1.60;;;22.90;80.80;;;;;;5110183;28;20020;-39
2021/06/16 08:53:03;;;;;;;3.78;2.20;;;22.90;80.80;;;;;;5106871;28;20036;-39
2021/06/16 08:55:29;;;;;;;2.50;2.05;;;23.00;80.90;;;;;;5109577;28;20069;-39
2021/06/16 08:57:54;;;;;;;3.78;2.35;;;23.00;80.90;;;;;;5109567;28;20047;-38
2021/06/16 09:00:22;;;;;;;5.43;2.60;;;23.00;80.90;;;;;;5110084;28;20099;-39
2021/06/16 09:02:47;;;;;;;4.05;2.33;;;23.00;80.80;;;;;;5109619;28;20153;-42
2021/06/16 09:05:14;;;;;;;2.72;2.03;;;23.10;80.60;;;;;;5109412;28;20490;-42
2021/06/16 09:07:41;;;;;;;3.58;2.25;;;23.10;80.60;;;;;;5110388;28;20019;-37
2021/06/16 09:10:15;;;;;;;4.57;2.50;;;23.10;80.70;;;;;;5108144;28;20024;-39
2021/06/16 09:12:53;;;;;;;2.72;2.20;;;23.10;80.70;;;;;;5109503;28;20031;-39
2021/06/16 09:15:21;;;;;;;3.67;2.17;;;23.20;80.60;;;;;;5109846;28;20023;-39
2021/06/16 09:18:05;;;;;;;3.70;2.40;;;23.20;80.50;;;;;;5108910;28;20104;-38
2021/06/16 09:20:43;;;;;;;2.53;2.22;;;23.30;80.50;;;;;;5109537;28;20092;-39
2021/06/16 09:23:11;;;;;;;3.80;2.42;;;23.30;80.20;;;;;;5109032;28;20049;-38
2021/06/16 09:25:38;;;;;;;4.13;2.78;;;23.30;80.00;;;;;;5109562;28;20028;-38
2021/06/16 09:28:04;;;;;;;5.43;2.60;;;23.30;79.80;;;;;;5108593;28;20035;-38
2021/06/16 09:30:33;;;;;;;3.15;2.70;;;23.40;79.50;;;;;;5108773;28;20024;-38
2021/06/16 09:33:04;;;;;;;4.15;2.63;;;23.50;78.90;;;;;;5108762;28;20359;-39
2021/06/16 09:35:36;;;;;;;5.40;2.63;;;23.50;78.50;;;;;;5109455;28;20023;-39
2021/06/16 09:38:07;;;;;;;3.30;2.50;;;23.60;78.40;;;;;;5109023;28;20019;-38
2021/06/16 09:40:37;;;;;;;4.65;2.60;;;23.70;78.40;;;;;;5109519;28;20019;-41
2021/06/16 09:43:06;;;;;;;3.70;2.45;;;23.70;78.50;;;;;;5108737;28;20024;-37
2021/06/16 09:45:36;;;;;;;4.20;2.70;;;23.80;78.50;;;;;;5109021;28;20110;-37
2021/06/16 09:48:39;;;;;;;4.55;3.00;;;23.80;78.30;;;;;;5108040;28;20505;-38
2021/06/16 09:51:17;;;;;;;4.20;2.15;;;23.80;78.00;;;;;;5098476;28;20146;-39
2021/06/16 09:54:13;;;;;;;3.20;2.13;;;23.80;78.10;;;;;;5108396;28;20115;-39
2021/06/16 09:56:45;;;;;;;2.80;2.05;;;23.90;78.50;;;;;;5109289;28;20089;-39
2021/06/16 09:59:12;;;;;;;2.75;1.90;;;24.00;78.10;;;;;;5108294;28;20027;-39
2021/06/16 10:01:52;;;;;;;3.15;2.13;;;24.10;78.10;;;;;;5108674;28;20092;-39
2021/06/16 10:04:41;;;;;;;3.28;2.50;;;24.20;77.60;;;;;;5108836;28;20051;-39
2021/06/16 10:07:19;;;;;;;2.72;2.35;;;24.20;77.50;;;;;;5108067;28;20027;-38
2021/06/16 10:09:52;;;;;;;3.35;2.38;;;24.20;77.40;;;;;;5108741;27;20076;-37
2021/06/16 10:12:23;;;;;;;5.00;2.70;;;24.20;77.30;;;;;;5108148;27;20075;-40
2021/06/16 10:14:50;;;;;;;3.78;2.15;;;24.30;77.20;;;;;;5106860;28;20122;-42
2021/06/16 10:17:15;;;;;;;3.50;2.40;;;24.30;77.00;;;;;;5108154;28;20015;-40
2021/06/16 10:19:46;;;;;;;2.67;2.10;;;24.40;77.10;;;;;;5107370;28;20160;-37
2021/06/16 10:22:12;;;;;;;3.08;2.40;;;24.40;77.00;;;;;;5107524;28;20034;-38
2021/06/16 10:24:38;;;;;;;2.20;2.00;;;24.60;76.60;;;;;;5108497;28;20019;-37
2021/06/16 10:27:07;;;;;;;2.70;2.45;;;24.80;76.40;;;;;;5107525;28;20028;-40
2021/06/16 10:29:36;;;;;;;3.10;2.35;;;24.80;76.10;;;;;;5108469;28;20047;-39
2021/06/16 10:32:04;;;;;;;3.67;2.20;;;24.80;76.00;;;;;;5102990;28;20363;-39
2021/06/16 10:34:52;;;;;;;2.65;2.00;;;24.90;76.00;;;;;;5107464;28;20024;-42
2021/06/16 10:37:33;;;;;;;2.17;1.75;;;24.90;76.20;;;;;;5107567;28;20345;-37
2021/06/16 10:40:17;;;;;;;2.85;2.30;;;24.90;76.10;;;;;;5107704;28;20457;-39
2021/06/16 10:43:09;;;;;;;2.85;2.50;;;24.90;75.90;;;;;;5107403;28;20023;-38
2021/06/16 10:45:36;;;;;;;3.08;2.25;;;24.90;75.50;;;;;;5108302;28;20092;-39
2021/06/16 10:48:10;;;;;;;3.10;2.50;;;24.90;75.70;;;;;;5107175;28;20046;-39
2021/06/16 10:50:48;;;;;;;3.03;2.00;;;24.90;75.80;;;;;;5108440;28;20111;-38
2021/06/16 10:53:18;;;;;;;2.22;2.03;;;25.00;75.80;;;;;;5107660;28;20383;-39
2021/06/16 10:55:56;;;;;;;3.08;2.40;;;25.00;75.90;;;;;;5107522;28;20026;-39
2021/06/16 10:58:27;;;;;;;3.15;2.08;;;25.00;76.00;;;;;;5108028;28;20089;-48
2021/06/16 11:01:15;;;;;;;3.55;2.42;;;25.10;76.20;;;;;;5107853;28;20027;-40
2021/06/16 11:03:52;;;;;;;3.05;2.45;;;25.20;76.00;;;;;;5107545;28;20119;-40
2021/06/16 11:06:33;;;;;;;3.13;2.40;;;25.30;75.70;;;;;;5107947;28;20020;-36
2021/06/16 11:09:04;;;;;;;3.67;2.15;;;25.40;75.50;;;;;;5106923;28;20096;-39
2021/06/16 11:11:51;;;;;;;2.40;2.20;;;25.50;75.50;;;;;;5108132;28;20097;-38
2021/06/16 11:14:35;;;;;;;3.28;2.17;;;25.50;75.40;;;;;;5107655;28;20456;-43
2021/06/16 11:17:31;;;;;;;2.20;2.00;;;25.50;75.40;;;;;;5106351;28;20416;-39
2021/06/16 11:20:06;;;;;;;4.97;2.60;;;25.60;75.20;;;;;;5106067;28;20023;-41
2021/06/16 11:22:35;;;;;;;3.38;2.60;;;25.70;75.10;;;;;;5107685;28;20032;-39
2021/06/16 11:25:45;;;;;;;3.47;2.30;;;25.70;75.00;;;;;;5106762;28;20027;-37
2021/06/16 11:28:12;;;;;;;2.70;2.38;;;25.80;75.10;;;;;;5087217;28;20132;-40
2021/06/16 11:30:47;;;;;;;3.50;3.00;;;25.90;75.00;;;;;;5106395;28;20023;-39
2021/06/16 11:33:13;;;;;;;4.18;2.75;;;25.90;74.40;;;;;;5107004;28;20046;-37
2021/06/16 11:35:40;;;;;;;2.72;2.50;;;26.00;74.30;;;;;;5107614;28;20028;-38
2021/06/16 11:38:07;;;;;;;3.80;2.45;;;26.10;74.30;;;;;;5106850;28;20107;-41
2021/06/16 11:40:32;;;;;;;2.58;2.38;;;26.10;74.20;;;;;;5107427;28;20028;-37
2021/06/16 11:42:59;;;;;;;6.13;3.20;;;26.20;74.30;;;;;;5107344;28;20032;-39
2021/06/16 11:45:30;;;;;;;3.88;2.90;;;26.30;74.20;;;;;;5103662;27;20041;-39
2021/06/16 11:47:57;;;;;;;4.93;2.70;;;26.30;74.00;;;;;;5106351;28;20038;-42
2021/06/16 11:50:31;;;;;;;4.45;2.42;;;26.30;74.00;;;;;;5104678;28;20019;-43
2021/06/16 11:53:00;;;;;;;4.30;3.05;;;26.30;74.20;;;;;;5105886;28;20370;-40
2021/06/16 11:55:47;;;;;;;3.88;2.63;;;26.30;74.20;;;;;;5106029;28;20020;-39
2021/06/16 11:58:25;;;;;;;3.22;2.65;;;26.50;74.00;;;;;;5106610;28;20031;-38
2021/06/16 12:00:52;;;;;;;5.25;2.80;;;26.60;73.60;;;;;;5106299;28;20025;-39
2021/06/16 12:03:19;;;;;;;3.38;3.08;;;26.80;73.40;;;;;;5106576;28;20088;-37
2021/06/16 12:05:44;;;;;;;3.38;3.08;;;27.00;73.00;;;;;;5106659;28;20019;-38
2021/06/16 12:08:10;;;;;;;3.92;2.90;;;27.20;72.50;;;;;;5106414;28;20066;-39
2021/06/16 12:10:36;;;;;;;4.53;3.15;;;27.30;72.00;;;;;;5106959;28;20437;-39
2021/06/16 12:13:06;;;;;;;4.88;2.63;;;27.40;72.00;;;;;;5106359;28;20036;-39
2021/06/16 12:15:36;;;;;;;3.83;2.70;;;27.40;72.10;;;;;;5106814;28;20032;-39
2021/06/16 12:18:06;;;;;;;3.72;3.08;;;27.40;72.00;;;;;;5106330;28;20028;-39
2021/06/16 12:20:37;;;;;;;4.93;3.35;;;27.50;71.80;;;;;;5106870;28;20034;-40
2021/06/16 12:23:18;;;;;;;3.42;3.13;;;27.40;71.40;;;;;;5095831;28;20077;-41
2021/06/16 12:25:44;;;;;;;4.60;2.50;;;27.50;71.40;;;;;;5109025;28;20120;-37
2021/06/16 12:28:10;;;;;;;5.65;2.80;;;27.40;71.50;;;;;;5106129;27;20081;-39
2021/06/16 12:30:37;;;;;;;4.82;3.10;;;27.30;71.80;;;;;;5106889;28;20478;-40
2021/06/16 12:33:24;;;;;;;3.08;2.88;;;27.20;71.90;;;;;;5105631;28;20054;-41
2021/06/16 12:35:59;;;;;;;4.88;3.03;;;27.20;72.20;;;;;;5106517;28;20027;-42
2021/06/16 12:38:43;;;;;;;3.42;3.10;;;27.20;72.20;;;;;;5106690;28;20102;-38
2021/06/16 12:41:27;;;;;;;3.70;2.70;;;27.20;72.00;;;;;;5106059;28;20514;-41
2021/06/16 12:44:10;;;;;;;3.35;2.95;;;27.30;72.20;;;;;;5096597;28;20036;-38
2021/06/16 12:47:11;;;;;;;4.28;2.90;;;27.30;71.90;;;;;;5110599;28;20028;-37
2021/06/16 12:49:43;;;;;;;2.67;2.30;;;27.40;72.10;;;;;;5110790;28;20178;-37
2021/06/16 12:52:12;;;;;;;5.50;2.65;;;27.40;72.20;;;;;;5109973;28;20070;-38
2021/06/16 12:54:40;;;;;;;2.80;2.60;;;27.40;72.10;;;;;;5110235;28;20030;-39
2021/06/16 12:57:16;;;;;;;3.63;2.50;;;27.40;71.90;;;;;;5110005;28;20020;-39
2021/06/16 12:59:49;;;;;;;3.63;2.70;;;27.40;72.00;;;;;;5109940;28;20449;-39